sensor_id;sensor_type;location;lat;lon;timestamp;pressure;altitude;pressure_sealevel;temperature;humidity
19508;BME280;40157;42.566;27.526;2023-05-06T00:00:27;100875.66;;;15.06;69.51
19508;BME280;40157;42.566;27.526;2023-05-06T00:02:27;100900.28;;;15.17;68.49
19508;BME280;40157;42.566;27.526;2023-05-06T00:04:28;100915.28;;;15.16;67.28
19508;BME280;40157;42.566;27.526;2023-05-06T00:06:29;100943.47;;;15.36;66.75
19508;BME280;40157;42.566;27.526;2023-05-06T00:08:29;100937.28;;;15.18;66.97
19508;BME280;40157;42.566;27.526;2023-05-06T00:10:30;100960.19;;;15.24;67.18
19508;BME280;40157;42.566;27.526;2023-05-06T00:12:30;100947.84;;;15.20;68.30
19508;BME280;40157;42.566;27.526;2023-05-06T00:14:31;100971.63;;;15.29;73.30
19508;BME280;40157;42.566;27.526;2023-05-06T00:16:31;100896.75;;;14.81;76.93
19508;BME280;40157;42.566;27.526;2023-05-06T00:18:32;100936.38;;;14.99;77.47
19508;BME280;40157;42.566;27.526;2023-05-06T00:20:32;100901.16;;;14.77;77.53
19508;BME280;40157;42.566;27.526;2023-05-06T00:22:33;100924.03;;;14.97;77.55
19508;BME280;40157;42.566;27.526;2023-05-06T00:24:33;100923.19;;;14.96;77.46
19508;BME280;40157;42.566;27.526;2023-05-06T00:26:33;100960.19;;;15.09;77.31
19508;BME280;40157;42.566;27.526;2023-05-06T00:28:34;100952.22;;;15.10;76.88
19508;BME280;40157;42.566;27.526;2023-05-06T00:30:34;100886.19;;;14.75;76.59
19508;BME280;40157;42.566;27.526;2023-05-06T00:32:35;100948.72;;;15.07;76.92
19508;BME280;40157;42.566;27.526;2023-05-06T00:34:35;100898.50;;;14.82;77.46
19508;BME280;40157;42.566;27.526;2023-05-06T00:36:36;100948.72;;;15.07;77.80
19508;BME280;40157;42.566;27.526;2023-05-06T00:38:37;100936.41;;;15.04;78.02
19508;BME280;40157;42.566;27.526;2023-05-06T00:40:38;100931.13;;;15.06;77.84
19508;BME280;40157;42.566;27.526;2023-05-06T00:42:38;100937.28;;;15.11;77.07
19508;BME280;40157;42.566;27.526;2023-05-06T00:44:39;100931.09;;;15.10;75.89
19508;BME280;40157;42.566;27.526;2023-05-06T00:46:41;100921.44;;;15.08;75.11
19508;BME280;40157;42.566;27.526;2023-05-06T00:48:43;100930.25;;;15.16;74.27
19508;BME280;40157;42.566;27.526;2023-05-06T00:50:44;100913.50;;;15.06;73.91
19508;BME280;40157;42.566;27.526;2023-05-06T00:52:45;100911.75;;;15.02;73.63
19508;BME280;40157;42.566;27.526;2023-05-06T00:54:45;100909.13;;;15.01;73.18
19508;BME280;40157;42.566;27.526;2023-05-06T00:56:46;100896.75;;;14.93;73.18
19508;BME280;40157;42.566;27.526;2023-05-06T00:58:47;100894.13;;;14.90;73.24
19508;BME280;40157;42.566;27.526;2023-05-06T01:00:48;100931.13;;;15.07;73.11
19508;BME280;40157;42.566;27.526;2023-05-06T01:02:48;100927.59;;;14.97;73.40
19508;BME280;40157;42.566;27.526;2023-05-06T01:04:49;100879.16;;;14.71;73.42
19508;BME280;40157;42.566;27.526;2023-05-06T01:07:00;100914.38;;;14.94;73.59
19508;BME280;40157;42.566;27.526;2023-05-06T01:13:53;100911.75;;;14.94;74.37
19508;BME280;40157;42.566;27.526;2023-05-06T01:15:58;100848.34;;;14.62;73.98
19508;BME280;40157;42.566;27.526;2023-05-06T01:18:05;100910.84;;;14.98;74.08
19508;BME280;40157;42.566;27.526;2023-05-06T01:20:08;100900.28;;;14.98;73.99
19508;BME280;40157;42.566;27.526;2023-05-06T01:22:12;100882.69;;;14.85;73.92
19508;BME280;40157;42.566;27.526;2023-05-06T01:24:12;100865.97;;;14.72;73.91
19508;BME280;40157;42.566;27.526;2023-05-06T01:26:13;100914.41;;;15.01;73.95
19508;BME280;40157;42.566;27.526;2023-05-06T01:28:13;100880.94;;;14.81;74.26
19508;BME280;40157;42.566;27.526;2023-05-06T01:30:16;100877.41;;;14.80;74.15
19508;BME280;40157;42.566;27.526;2023-05-06T01:35:08;100873.88;;;14.83;74.25
19508;BME280;40157;42.566;27.526;2023-05-06T01:41:19;100880.94;;;14.87;73.92
19508;BME280;40157;42.566;27.526;2023-05-06T01:43:23;100875.66;;;14.81;73.85
19508;BME280;40157;42.566;27.526;2023-05-06T01:45:27;100905.56;;;15.00;73.75
19508;BME280;40157;42.566;27.526;2023-05-06T01:47:28;100893.25;;;14.91;73.44
19508;BME280;40157;42.566;27.526;2023-05-06T01:49:29;100890.63;;;14.93;73.41
19508;BME280;40157;42.566;27.526;2023-05-06T01:51:32;100890.63;;;14.97;73.18
19508;BME280;40157;42.566;27.526;2023-05-06T01:53:33;100899.41;;;14.99;73.13
19508;BME280;40157;42.566;27.526;2023-05-06T01:55:33;100874.78;;;14.93;73.20
19508;BME280;40157;42.566;27.526;2023-05-06T01:57:34;100867.72;;;14.89;72.76
19508;BME280;40157;42.566;27.526;2023-05-06T01:59:34;100894.16;;;15.03;72.52
19508;BME280;40157;42.566;27.526;2023-05-06T02:01:35;100907.34;;;15.15;72.50
19508;BME280;40157;42.566;27.526;2023-05-06T02:03:36;100880.94;;;15.06;72.22
19508;BME280;40157;42.566;27.526;2023-05-06T02:05:36;100873.03;;;14.99;71.88
19508;BME280;40157;42.566;27.526;2023-05-06T02:07:37;100906.47;;;15.19;71.77
19508;BME280;40157;42.566;27.526;2023-05-06T02:09:37;100856.28;;;14.91;71.78
19508;BME280;40157;42.566;27.526;2023-05-06T02:11:37;100891.50;;;15.01;71.73
19508;BME280;40157;42.566;27.526;2023-05-06T02:13:38;100895.03;;;15.08;71.76
19508;BME280;40157;42.566;27.526;2023-05-06T02:15:38;100898.53;;;15.10;71.83
19508;BME280;40157;42.566;27.526;2023-05-06T02:17:39;100899.44;;;15.06;71.70
19508;BME280;40157;42.566;27.526;2023-05-06T02:19:39;100901.19;;;15.02;71.14
19508;BME280;40157;42.566;27.526;2023-05-06T02:21:40;100898.53;;;15.04;71.23
19508;BME280;40157;42.566;27.526;2023-05-06T02:23:40;100921.44;;;15.09;71.38
19508;BME280;40157;42.566;27.526;2023-05-06T02:25:41;100902.94;;;14.95;71.63
19508;BME280;40157;42.566;27.526;2023-05-06T02:27:42;100898.53;;;14.79;71.68
19508;BME280;40157;42.566;27.526;2023-05-06T02:29:44;100889.69;;;14.77;71.82
19508;BME280;40157;42.566;27.526;2023-05-06T02:31:45;100923.19;;;14.96;71.92
19508;BME280;40157;42.566;27.526;2023-05-06T02:33:46;100923.16;;;14.93;72.20
19508;BME280;40157;42.566;27.526;2023-05-06T02:35:46;100859.75;;;14.47;72.16
19508;BME280;40157;42.566;27.526;2023-05-06T02:37:47;100923.16;;;14.84;72.22
19508;BME280;40157;42.566;27.526;2023-05-06T02:39:47;100906.41;;;14.71;72.18
19508;BME280;40157;42.566;27.526;2023-05-06T02:41:48;100921.38;;;14.77;72.32
19508;BME280;40157;42.566;27.526;2023-05-06T02:43:48;100909.06;;;14.73;72.58
19508;BME280;40157;42.566;27.526;2023-05-06T02:45:49;100899.38;;;14.72;72.82
19508;BME280;40157;42.566;27.526;2023-05-06T02:47:49;100901.16;;;14.76;72.89
19508;BME280;40157;42.566;27.526;2023-05-06T02:49:50;100825.38;;;14.30;73.15
19508;BME280;40157;42.566;27.526;2023-05-06T02:51:50;100844.75;;;14.41;73.01
19508;BME280;40157;42.566;27.526;2023-05-06T02:53:51;100880.88;;;14.59;73.21
19508;BME280;40157;42.566;27.526;2023-05-06T02:55:51;100917.88;;;14.81;73.17
19508;BME280;40157;42.566;27.526;2023-05-06T02:57:51;100923.16;;;14.84;74.22
19508;BME280;40157;42.566;27.526;2023-05-06T02:59:52;100902.03;;;14.73;74.68
19508;BME280;40157;42.566;27.526;2023-05-06T03:01:52;100917.91;;;14.84;75.14
19508;BME280;40157;42.566;27.526;2023-05-06T03:03:53;100908.19;;;14.75;75.35
19508;BME280;40157;42.566;27.526;2023-05-06T03:05:53;100838.59;;;14.35;76.47
19508;BME280;40157;42.566;27.526;2023-05-06T03:07:54;100922.28;;;14.85;76.87
19508;BME280;40157;42.566;27.526;2023-05-06T03:09:54;100921.41;;;14.86;77.34
19508;BME280;40157;42.566;27.526;2023-05-06T03:11:55;100922.28;;;14.91;77.81
19508;BME280;40157;42.566;27.526;2023-05-06T03:13:56;100910.84;;;14.85;78.13
19508;BME280;40157;42.566;27.526;2023-05-06T03:15:57;100886.19;;;14.72;78.32
19508;BME280;40157;42.566;27.526;2023-05-06T03:17:57;100877.38;;;14.71;78.38
19508;BME280;40157;42.566;27.526;2023-05-06T03:19:58;100924.06;;;14.98;78.41
19508;BME280;40157;42.566;27.526;2023-05-06T03:21:58;100871.22;;;14.68;78.30
19508;BME280;40157;42.566;27.526;2023-05-06T03:23:59;100918.78;;;14.92;78.39
19508;BME280;40157;42.566;27.526;2023-05-06T03:25:59;100907.34;;;14.84;78.37
19508;BME280;40157;42.566;27.526;2023-05-06T03:27:59;100932.00;;;14.94;78.01
19508;BME280;40157;42.566;27.526;2023-05-06T03:30:00;100925.81;;;14.86;77.49
19508;BME280;40157;42.566;27.526;2023-05-06T03:32:02;100900.25;;;14.68;77.13
19508;BME280;40157;42.566;27.526;2023-05-06T03:34:03;100942.56;;;14.95;77.19
19508;BME280;40157;42.566;27.526;2023-05-06T03:36:03;100887.94;;;14.59;77.28
19508;BME280;40157;42.566;27.526;2023-05-06T03:38:05;100942.53;;;14.89;78.01
19508;BME280;40157;42.566;27.526;2023-05-06T03:40:06;100934.59;;;14.83;78.30
19508;BME280;40157;42.566;27.526;2023-05-06T03:42:07;100914.34;;;14.73;78.55
19508;BME280;40157;42.566;27.526;2023-05-06T03:44:07;100916.13;;;14.72;78.70
19508;BME280;40157;42.566;27.526;2023-05-06T03:46:08;100954.00;;;14.96;79.09
19508;BME280;40157;42.566;27.526;2023-05-06T03:48:08;100934.63;;;14.94;79.27
19508;BME280;40157;42.566;27.526;2023-05-06T03:50:09;100946.94;;;14.92;79.31
19508;BME280;40157;42.566;27.526;2023-05-06T03:52:10;100958.38;;;14.98;79.31
19508;BME280;40157;42.566;27.526;2023-05-06T03:54:10;100934.59;;;14.82;78.47
19508;BME280;40157;42.566;27.526;2023-05-06T03:56:11;100977.78;;;15.01;77.02
19508;BME280;40157;42.566;27.526;2023-05-06T03:58:11;100964.56;;;14.97;76.63
19508;BME280;40157;42.566;27.526;2023-05-06T04:00:12;100892.28;;;14.54;76.17
19508;BME280;40157;42.566;27.526;2023-05-06T04:02:13;100976.00;;;15.06;75.89
19508;BME280;40157;42.566;27.526;2023-05-06T04:04:13;100898.50;;;14.67;75.52
19508;BME280;40157;42.566;27.526;2023-05-06T04:06:14;100897.63;;;14.65;75.03
19508;BME280;40157;42.566;27.526;2023-05-06T04:08:14;100906.41;;;14.65;74.70
19508;BME280;40157;42.566;27.526;2023-05-06T04:10:16;100943.38;;;14.82;74.58
19508;BME280;40157;42.566;27.526;2023-05-06T04:12:16;100977.75;;;15.10;74.43
19508;BME280;40157;42.566;27.526;2023-05-06T04:14:17;100956.63;;;15.04;74.47
19508;BME280;40157;42.566;27.526;2023-05-06T04:16:17;100974.25;;;15.17;74.52
19508;BME280;40157;42.566;27.526;2023-05-06T04:18:18;100978.66;;;15.21;74.27
19508;BME280;40157;42.566;27.526;2023-05-06T04:20:19;100969.84;;;15.13;74.05
19508;BME280;40157;42.566;27.526;2023-05-06T04:22:19;100990.13;;;15.26;73.89
19508;BME280;40157;42.566;27.526;2023-05-06T04:24:20;100985.72;;;15.31;73.65
19508;BME280;40157;42.566;27.526;2023-05-06T04:26:20;100941.66;;;15.13;73.51
19508;BME280;40157;42.566;27.526;2023-05-06T04:28:21;100930.22;;;15.10;73.65
19508;BME280;40157;42.566;27.526;2023-05-06T04:30:21;100984.84;;;15.42;73.80
19508;BME280;40157;42.566;27.526;2023-05-06T04:32:22;100912.63;;;15.01;74.04
19508;BME280;40157;42.566;27.526;2023-05-06T04:34:25;100921.41;;;15.02;74.29
19508;BME280;40157;42.566;27.526;2023-05-06T04:36:27;100992.78;;;15.54;74.53
19508;BME280;40157;42.566;27.526;2023-05-06T04:38:27;100995.44;;;15.57;74.51
19508;BME280;40157;42.566;27.526;2023-05-06T04:40:33;100997.19;;;15.60;74.92
19508;BME280;40157;42.566;27.526;2023-05-06T04:42:34;100972.50;;;15.48;74.84
19508;BME280;40157;42.566;27.526;2023-05-06T04:44:34;100994.53;;;15.60;75.11
19508;BME280;40157;42.566;27.526;2023-05-06T04:46:35;100998.94;;;15.68;75.71
19508;BME280;40157;42.566;27.526;2023-05-06T04:48:36;100971.66;;;15.57;75.88
19508;BME280;40157;42.566;27.526;2023-05-06T04:50:37;100955.78;;;15.51;75.84
19508;BME280;40157;42.566;27.526;2023-05-06T04:52:37;100991.91;;;15.70;75.86
19508;BME280;40157;42.566;27.526;2023-05-06T04:54:37;100991.03;;;15.78;75.71
19508;BME280;40157;42.566;27.526;2023-05-06T04:56:38;101007.78;;;15.89;75.55
19508;BME280;40157;42.566;27.526;2023-05-06T04:58:38;101006.00;;;15.94;75.97
19508;BME280;40157;42.566;27.526;2023-05-06T05:00:39;100967.25;;;15.78;75.87
19508;BME280;40157;42.566;27.526;2023-05-06T05:02:39;101005.97;;;16.03;76.27
19508;BME280;40157;42.566;27.526;2023-05-06T05:04:40;100995.34;;;16.22;80.84
19508;BME280;40157;42.566;27.526;2023-05-06T05:06:40;100985.63;;;16.30;82.39
19508;BME280;40157;42.566;27.526;2023-05-06T05:08:41;100970.66;;;16.27;82.09
19508;BME280;40157;42.566;27.526;2023-05-06T05:10:41;101004.06;;;16.52;79.89
19508;BME280;40157;42.566;27.526;2023-05-06T05:12:45;100962.66;;;16.35;79.08
19508;BME280;40157;42.566;27.526;2023-05-06T05:14:45;101009.28;;;16.70;78.04
19508;BME280;40157;42.566;27.526;2023-05-06T05:16:46;101002.19;;;16.78;78.18
19508;BME280;40157;42.566;27.526;2023-05-06T05:18:47;101004.81;;;16.89;78.47
19508;BME280;40157;42.566;27.526;2023-05-06T05:20:47;100998.56;;;17.01;79.28
19508;BME280;40157;42.566;27.526;2023-05-06T05:22:48;100994.97;;;17.11;80.01
19508;BME280;40157;42.566;27.526;2023-05-06T05:24:48;100998.34;;;17.32;81.08
19508;BME280;40157;42.566;27.526;2023-05-06T05:26:49;100996.59;;;17.37;79.63
19508;BME280;40157;42.566;27.526;2023-05-06T05:28:49;101014.09;;;17.53;77.98
19508;BME280;40157;42.566;27.526;2023-05-06T05:30:49;101016.69;;;17.64;75.59
19508;BME280;40157;42.566;27.526;2023-05-06T05:32:50;101007.81;;;17.67;74.45
19508;BME280;40157;42.566;27.526;2023-05-06T05:34:51;100977.81;;;17.60;73.20
19508;BME280;40157;42.566;27.526;2023-05-06T05:36:51;101018.28;;;17.82;72.79
19508;BME280;40157;42.566;27.526;2023-05-06T05:38:52;101023.53;;;17.91;72.20
19508;BME280;40157;42.566;27.526;2023-05-06T05:40:52;101017.41;;;17.80;71.46
19508;BME280;40157;42.566;27.526;2023-05-06T05:42:53;101020.84;;;17.94;71.38
19508;BME280;40157;42.566;27.526;2023-05-06T05:44:54;101026.09;;;18.01;71.48
19508;BME280;40157;42.566;27.526;2023-05-06T05:46:54;101037.41;;;18.20;72.38
19508;BME280;40157;42.566;27.526;2023-05-06T05:48:55;101002.19;;;18.05;70.98
19508;BME280;40157;42.566;27.526;2023-05-06T05:50:57;101049.63;;;18.36;72.57
19508;BME280;40157;42.566;27.526;2023-05-06T05:53:01;101005.59;;;18.15;70.97
19508;BME280;40157;42.566;27.526;2023-05-06T05:55:05;101024.06;;;18.27;70.18
19508;BME280;40157;42.566;27.526;2023-05-06T05:57:06;101022.28;;;18.26;69.83
19508;BME280;40157;42.566;27.526;2023-05-06T05:59:06;101013.50;;;18.21;67.42
19508;BME280;40157;42.566;27.526;2023-05-06T06:01:07;101044.31;;;18.38;67.58
19508;BME280;40157;42.566;27.526;2023-05-06T06:03:07;101021.38;;;18.32;67.70
19508;BME280;40157;42.566;27.526;2023-05-06T06:05:08;101055.78;;;18.38;67.52
19508;BME280;40157;42.566;27.526;2023-05-06T06:07:08;101032.94;;;18.23;67.37
19508;BME280;40157;42.566;27.526;2023-05-06T06:09:09;101029.38;;;18.26;67.97
19508;BME280;40157;42.566;27.526;2023-05-06T06:11:10;100965.97;;;17.98;68.56
19508;BME280;40157;42.566;27.526;2023-05-06T06:13:11;101000.28;;;18.17;69.28
19508;BME280;40157;42.566;27.526;2023-05-06T06:15:11;100993.34;;;18.05;68.45
19508;BME280;40157;42.566;27.526;2023-05-06T06:17:13;100976.63;;;17.93;68.67
19508;BME280;40157;42.566;27.526;2023-05-06T06:19:13;101036.41;;;18.28;68.99
19508;BME280;40157;42.566;27.526;2023-05-06T06:21:15;101018.81;;;18.20;69.94
19508;BME280;40157;42.566;27.526;2023-05-06T06:23:15;100992.59;;;17.92;69.82
19508;BME280;40157;42.566;27.526;2023-05-06T06:25:15;101032.19;;;18.12;69.68
19508;BME280;40157;42.566;27.526;2023-05-06T06:27:16;101003.25;;;17.81;69.91
19508;BME280;40157;42.566;27.526;2023-05-06T06:29:17;101041.09;;;18.03;68.75
19508;BME280;40157;42.566;27.526;2023-05-06T06:31:17;101038.47;;;18.02;69.63
19508;BME280;40157;42.566;27.526;2023-05-06T06:33:17;101002.38;;;17.84;69.59
19508;BME280;40157;42.566;27.526;2023-05-06T06:35:18;101039.28;;;18.08;71.30
19508;BME280;40157;42.566;27.526;2023-05-06T06:37:19;101042.81;;;18.14;71.15
19508;BME280;40157;42.566;27.526;2023-05-06T06:39:19;101054.25;;;18.17;71.33
19508;BME280;40157;42.566;27.526;2023-05-06T06:41:20;101048.03;;;18.20;71.23
19508;BME280;40157;42.566;27.526;2023-05-06T06:43:20;101046.34;;;18.12;70.76
19508;BME280;40157;42.566;27.526;2023-05-06T06:45:22;101034.13;;;17.94;70.20
19508;BME280;40157;42.566;27.526;2023-05-06T06:47:23;101042.09;;;17.91;69.72
19508;BME280;40157;42.566;27.526;2023-05-06T06:49:24;101021.84;;;17.78;70.79
19508;BME280;40157;42.566;27.526;2023-05-06T06:51:25;101041.22;;;17.86;72.53
19508;BME280;40157;42.566;27.526;2023-05-06T06:53:25;101038.56;;;17.86;70.91
19508;BME280;40157;42.566;27.526;2023-05-06T06:55:26;101032.44;;;17.81;69.29
19508;BME280;40157;42.566;27.526;2023-05-06T06:57:26;101037.78;;;17.75;69.73
19508;BME280;40157;42.566;27.526;2023-05-06T06:59:27;101017.53;;;17.65;70.21
19508;BME280;40157;42.566;27.526;2023-05-06T07:01:27;101040.50;;;17.72;68.64
19508;BME280;40157;42.566;27.526;2023-05-06T07:03:28;101033.53;;;17.59;69.28
19508;BME280;40157;42.566;27.526;2023-05-06T07:05:28;101053.78;;;17.66;70.50
19508;BME280;40157;42.566;27.526;2023-05-06T07:07:29;101042.25;;;17.68;70.00
19508;BME280;40157;42.566;27.526;2023-05-06T07:09:29;101042.25;;;17.70;70.32
19508;BME280;40157;42.566;27.526;2023-05-06T07:11:29;101019.38;;;17.56;70.74
19508;BME280;40157;42.566;27.526;2023-05-06T07:13:30;101036.03;;;17.75;71.27
19508;BME280;40157;42.566;27.526;2023-05-06T07:15:30;101049.31;;;17.75;71.45
19508;BME280;40157;42.566;27.526;2023-05-06T07:17:31;100991.31;;;17.34;71.02
19508;BME280;40157;42.566;27.526;2023-05-06T07:19:32;100966.69;;;17.13;70.70
19508;BME280;40157;42.566;27.526;2023-05-06T07:21:33;101052.84;;;17.70;71.77
19508;BME280;40157;42.566;27.526;2023-05-06T07:23:33;101010.59;;;17.51;71.52
19508;BME280;40157;42.566;27.526;2023-05-06T07:25:33;101029.97;;;17.61;71.25
19508;BME280;40157;42.566;27.526;2023-05-06T07:27:34;101017.63;;;17.55;71.79
19508;BME280;40157;42.566;27.526;2023-05-06T07:29:35;101030.88;;;17.59;71.53
19508;BME280;40157;42.566;27.526;2023-05-06T07:31:36;100978.94;;;17.33;71.62
19508;BME280;40157;42.566;27.526;2023-05-06T07:33:36;101044.03;;;17.68;71.39
19508;BME280;40157;42.566;27.526;2023-05-06T07:35:37;101035.22;;;17.66;70.68
19508;BME280;40157;42.566;27.526;2023-05-06T07:37:37;101042.28;;;17.67;69.45
19508;BME280;40157;42.566;27.526;2023-05-06T07:39:38;101026.44;;;17.61;69.68
19508;BME280;40157;42.566;27.526;2023-05-06T07:41:38;101052.81;;;17.76;69.70
19508;BME280;40157;42.566;27.526;2023-05-06T07:43:39;101050.31;;;17.59;70.14
19508;BME280;40157;42.566;27.526;2023-05-06T07:45:39;101056.47;;;17.60;70.16
19508;BME280;40157;42.566;27.526;2023-05-06T07:47:40;101060.06;;;17.57;70.61
19508;BME280;40157;42.566;27.526;2023-05-06T07:49:40;101074.19;;;17.54;70.66
19508;BME280;40157;42.566;27.526;2023-05-06T07:51:43;101065.41;;;17.46;70.77
19508;BME280;40157;42.566;27.526;2023-05-06T07:53:44;101061.94;;;17.35;70.18
19508;BME280;40157;42.566;27.526;2023-05-06T07:55:44;101039.13;;;17.15;71.03
19508;BME280;40157;42.566;27.526;2023-05-06T07:57:45;101076.97;;;17.34;71.35
19508;BME280;40157;42.566;27.526;2023-05-06T07:59:46;101062.97;;;17.14;71.70
19508;BME280;40157;42.566;27.526;2023-05-06T08:01:47;101051.53;;;17.07;71.74
19508;BME280;40157;42.566;27.526;2023-05-06T08:03:47;101065.56;;;17.18;72.58
19508;BME280;40157;42.566;27.526;2023-05-06T08:05:51;101082.31;;;17.28;72.70
19508;BME280;40157;42.566;27.526;2023-05-06T08:07:52;101062.97;;;17.17;72.61
19508;BME280;40157;42.566;27.526;2023-05-06T08:09:53;101037.44;;;16.99;72.81
19508;BME280;40157;42.566;27.526;2023-05-06T08:11:53;101092.91;;;17.28;72.50
19508;BME280;40157;42.566;27.526;2023-05-06T08:13:54;101076.22;;;17.12;72.34
19508;BME280;40157;42.566;27.526;2023-05-06T08:15:54;101078.00;;;17.10;72.79
19508;BME280;40157;42.566;27.526;2023-05-06T08:17:55;101059.50;;;16.99;72.61
19508;BME280;40157;42.566;27.526;2023-05-06T08:19:57;101061.28;;;16.97;72.35
19508;BME280;40157;42.566;27.526;2023-05-06T08:21:57;101085.03;;;17.20;72.59
19508;BME280;40157;42.566;27.526;2023-05-06T08:23:58;101078.81;;;17.23;72.37
19508;BME280;40157;42.566;27.526;2023-05-06T08:25:58;101073.56;;;17.17;71.91
19508;BME280;40157;42.566;27.526;2023-05-06T08:27:58;101062.06;;;17.13;72.35
19508;BME280;40157;42.566;27.526;2023-05-06T08:29:59;101077.91;;;17.29;72.98
19508;BME280;40157;42.566;27.526;2023-05-06T08:32:00;101044.44;;;17.15;73.99
19508;BME280;40157;42.566;27.526;2023-05-06T08:34:00;101069.88;;;17.38;74.43
19508;BME280;40157;42.566;27.526;2023-05-06T08:36:01;101051.34;;;17.35;74.69
19508;BME280;40157;42.566;27.526;2023-05-06T08:38:01;101003.78;;;17.16;74.09
19508;BME280;40157;42.566;27.526;2023-05-06T08:40:02;101033.63;;;17.43;74.29
19508;BME280;40157;42.566;27.526;2023-05-06T08:42:04;101077.56;;;17.75;73.69
19508;BME280;40157;42.566;27.526;2023-05-06T08:44:06;101076.53;;;17.98;73.87
19508;BME280;40157;42.566;27.526;2023-05-06T08:46:07;101067.56;;;18.11;73.68
19508;BME280;40157;42.566;27.526;2023-05-06T08:48:08;101070.94;;;18.28;73.06
19508;BME280;40157;42.566;27.526;2023-05-06T08:50:09;101083.13;;;18.46;72.26
19508;BME280;40157;42.566;27.526;2023-05-06T08:52:10;101028.56;;;18.21;71.89
19508;BME280;40157;42.566;27.526;2023-05-06T08:54:11;101074.78;;;18.82;70.16
19508;BME280;40157;42.566;27.526;2023-05-06T08:56:12;101020.00;;;18.72;68.97
19508;BME280;40157;42.566;27.526;2023-05-06T08:58:15;101083.03;;;19.30;67.46
19508;BME280;40157;42.566;27.526;2023-05-06T09:00:16;101087.06;;;19.56;67.37
19508;BME280;40157;42.566;27.526;2023-05-06T09:02:17;101051.59;;;19.58;66.89
19508;BME280;40157;42.566;27.526;2023-05-06T09:04:18;101059.28;;;19.78;65.28
19508;BME280;40157;42.566;27.526;2023-05-06T09:06:18;101060.81;;;19.93;64.46
19508;BME280;40157;42.566;27.526;2023-05-06T09:08:19;101001.59;;;19.81;62.36
19508;BME280;40157;42.566;27.526;2023-05-06T09:10:19;101030.13;;;20.21;62.07
19508;BME280;40157;42.566;27.526;2023-05-06T09:12:20;101067.69;;;20.54;61.95
19508;BME280;40157;42.566;27.526;2023-05-06T09:14:20;101074.34;;;20.76;61.33
19508;BME280;40157;42.566;27.526;2023-05-06T09:16:28;101069.84;;;20.78;61.20
19508;BME280;40157;42.566;27.526;2023-05-06T09:18:29;101073.13;;;20.93;59.63
19508;BME280;40157;42.566;27.526;2023-05-06T09:20:34;101068.31;;;21.10;60.10
19508;BME280;40157;42.566;27.526;2023-05-06T09:22:36;101076.75;;;21.31;59.59
19508;BME280;40157;42.566;27.526;2023-05-06T09:24:39;101053.53;;;21.34;58.90
19508;BME280;40157;42.566;27.526;2023-05-06T09:26:41;101077.03;;;21.57;57.82
19508;BME280;40157;42.566;27.526;2023-05-06T09:28:45;101066.97;;;21.69;58.77
19508;BME280;40157;42.566;27.526;2023-05-06T09:30:46;101069.34;;;21.81;58.68
19508;BME280;40157;42.566;27.526;2023-05-06T09:32:46;101072.63;;;21.92;58.13
19508;BME280;40157;42.566;27.526;2023-05-06T09:34:48;101059.19;;;21.95;58.47
19508;BME280;40157;42.566;27.526;2023-05-06T09:36:51;101072.13;;;22.11;56.00
19508;BME280;40157;42.566;27.526;2023-05-06T09:38:52;101061.22;;;22.20;55.20
19508;BME280;40157;42.566;27.526;2023-05-06T09:40:56;101069.06;;;22.26;54.57
19508;BME280;40157;42.566;27.526;2023-05-06T09:42:57;101059.31;;;22.25;54.70
19508;BME280;40157;42.566;27.526;2023-05-06T09:45:00;101033.50;;;22.24;53.87
19508;BME280;40157;42.566;27.526;2023-05-06T09:47:01;101051.81;;;22.40;54.30
19508;BME280;40157;42.566;27.526;2023-05-06T09:49:02;101037.56;;;22.39;53.46
19508;BME280;40157;42.566;27.526;2023-05-06T09:51:04;101046.13;;;22.52;53.63
19508;BME280;40157;42.566;27.526;2023-05-06T09:53:05;101039.69;;;22.59;53.73
19508;BME280;40157;42.566;27.526;2023-05-06T09:55:07;101053.25;;;22.83;54.24
19508;BME280;40157;42.566;27.526;2023-05-06T09:57:10;101073.34;;;22.96;53.31
19508;BME280;40157;42.566;27.526;2023-05-06T09:59:13;101057.31;;;22.96;52.89
19508;BME280;40157;42.566;27.526;2023-05-06T10:01:14;101053.53;;;23.03;51.62
19508;BME280;40157;42.566;27.526;2023-05-06T10:03:16;101068.38;;;23.15;49.32
19508;BME280;40157;42.566;27.526;2023-05-06T10:05:17;101012.50;;;22.75;49.60
19508;BME280;40157;42.566;27.526;2023-05-06T10:07:19;100997.19;;;22.80;50.97
19508;BME280;40157;42.566;27.526;2023-05-06T10:09:25;101042.41;;;23.19;50.86
19508;BME280;40157;42.566;27.526;2023-05-06T10:11:26;101058.09;;;23.30;52.72
19508;BME280;40157;42.566;27.526;2023-05-06T10:13:28;100983.53;;;22.89;52.79
19508;BME280;40157;42.566;27.526;2023-05-06T10:15:29;101059.63;;;23.38;53.64
19508;BME280;40157;42.566;27.526;2023-05-06T10:17:32;101030.28;;;23.05;54.50
19508;BME280;40157;42.566;27.526;2023-05-06T10:19:34;101019.53;;;23.08;55.14
19508;BME280;40157;42.566;27.526;2023-05-06T10:21:38;101059.63;;;23.38;55.24
19508;BME280;40157;42.566;27.526;2023-05-06T10:23:46;101081.34;;;23.56;55.34
19508;BME280;40157;42.566;27.526;2023-05-06T10:25:56;101079.59;;;23.55;55.64
19508;BME280;40157;42.566;27.526;2023-05-06T10:28:03;101067.19;;;23.52;56.46
19508;BME280;40157;42.566;27.526;2023-05-06T10:30:04;101064.75;;;23.44;55.93
19508;BME280;40157;42.566;27.526;2023-05-06T10:32:07;101057.69;;;23.43;56.29
19508;BME280;40157;42.566;27.526;2023-05-06T10:34:08;101056.00;;;23.39;56.44
19508;BME280;40157;42.566;27.526;2023-05-06T10:36:23;101054.16;;;23.41;56.21